sensor_id;sensor_type;location;lat;lon;timestamp;P1;durP1;ratioP1;P2;durP2;ratioP2
65656;SDS011;57397;50.096;14.404;2022-09-09T00:04:37;1.08;;;0.77;;
65656;SDS011;57397;50.096;14.404;2022-09-09T00:07:05;1.10;;;0.90;;
65656;SDS011;57397;50.096;14.404;2022-09-09T00:15:19;1.38;;;0.80;;
65656;SDS011;57397;50.096;14.404;2022-09-09T00:17:56;1.85;;;0.85;;
65656;SDS011;57397;50.096;14.404;2022-09-09T00:23:30;2.20;;;0.80;;
65656;SDS011;57397;50.096;14.404;2022-09-09T00:28:41;1.30;;;0.90;;
65656;SDS011;57397;50.096;14.404;2022-09-09T00:31:13;1.02;;;0.80;;
65656;SDS011;57397;50.096;14.404;2022-09-09T00:33:41;1.38;;;0.88;;
65656;SDS011;57397;50.096;14.404;2022-09-09T00:36:14;2.05;;;1.00;;
65656;SDS011;57397;50.096;14.404;2022-09-09T00:38:47;2.20;;;0.90;;
65656;SDS011;57397;50.096;14.404;2022-09-09T00:44:02;0.90;;;0.75;;
65656;SDS011;57397;50.096;14.404;2022-09-09T00:46:41;1.00;;;0.70;;
65656;SDS011;57397;50.096;14.404;2022-09-09T00:57:40;0.80;;;0.60;;
65656;SDS011;57397;50.096;14.404;2022-09-09T01:06:21;3.50;;;0.70;;
65656;SDS011;57397;50.096;14.404;2022-09-09T01:17:08;0.93;;;0.70;;
65656;SDS011;57397;50.096;14.404;2022-09-09T01:22:29;1.20;;;0.75;;
65656;SDS011;57397;50.096;14.404;2022-09-09T01:28:11;1.13;;;0.80;;
65656;SDS011;57397;50.096;14.404;2022-09-09T01:30:40;2.60;;;0.80;;
65656;SDS011;57397;50.096;14.404;2022-09-09T01:33:07;1.30;;;0.70;;
65656;SDS011;57397;50.096;14.404;2022-09-09T01:38:06;1.58;;;0.73;;
65656;SDS011;57397;50.096;14.404;2022-09-09T01:40:32;2.33;;;0.73;;
65656;SDS011;57397;50.096;14.404;2022-09-09T01:42:57;1.50;;;0.70;;
65656;SDS011;57397;50.096;14.404;2022-09-09T01:45:23;0.85;;;0.70;;
65656;SDS011;57397;50.096;14.404;2022-09-09T01:47:49;1.27;;;0.70;;
65656;SDS011;57397;50.096;14.404;2022-09-09T01:50:16;1.95;;;0.85;;
65656;SDS011;57397;50.096;14.404;2022-09-09T01:52:45;0.80;;;0.80;;
65656;SDS011;57397;50.096;14.404;2022-09-09T01:55:14;1.42;;;0.70;;
65656;SDS011;57397;50.096;14.404;2022-09-09T01:57:56;1.65;;;0.68;;
65656;SDS011;57397;50.096;14.404;2022-09-09T02:00:37;1.05;;;0.70;;
65656;SDS011;57397;50.096;14.404;2022-09-09T02:03:17;1.00;;;0.80;;
65656;SDS011;57397;50.096;14.404;2022-09-09T02:11:15;0.63;;;0.50;;
65656;SDS011;57397;50.096;14.404;2022-09-09T02:13:44;1.00;;;0.70;;
65656;SDS011;57397;50.096;14.404;2022-09-09T02:18:51;0.88;;;0.70;;
65656;SDS011;57397;50.096;14.404;2022-09-09T02:21:18;0.82;;;0.60;;
65656;SDS011;57397;50.096;14.404;2022-09-09T02:23:44;0.93;;;0.70;;
65656;SDS011;57397;50.096;14.404;2022-09-09T02:26:12;1.45;;;0.68;;
65656;SDS011;57397;50.096;14.404;2022-09-09T02:28:44;0.85;;;0.65;;
65656;SDS011;57397;50.096;14.404;2022-09-09T02:31:11;1.67;;;0.80;;
65656;SDS011;57397;50.096;14.404;2022-09-09T02:33:41;2.20;;;0.70;;
65656;SDS011;57397;50.096;14.404;2022-09-09T02:36:10;0.63;;;0.57;;
65656;SDS011;57397;50.096;14.404;2022-09-09T02:38:37;0.63;;;0.60;;
65656;SDS011;57397;50.096;14.404;2022-09-09T02:41:05;0.73;;;0.52;;
65656;SDS011;57397;50.096;14.404;2022-09-09T02:43:34;2.15;;;0.73;;
65656;SDS011;57397;50.096;14.404;2022-09-09T02:46:06;2.40;;;0.70;;
65656;SDS011;57397;50.096;14.404;2022-09-09T02:53:52;0.77;;;0.57;;
65656;SDS011;57397;50.096;14.404;2022-09-09T02:56:25;1.80;;;0.63;;
65656;SDS011;57397;50.096;14.404;2022-09-09T02:58:53;1.55;;;0.80;;
65656;SDS011;57397;50.096;14.404;2022-09-09T03:01:19;1.13;;;0.68;;
65656;SDS011;57397;50.096;14.404;2022-09-09T03:03:45;1.90;;;0.57;;
65656;SDS011;57397;50.096;14.404;2022-09-09T03:06:11;0.80;;;0.60;;
65656;SDS011;57397;50.096;14.404;2022-09-09T03:08:37;0.80;;;0.70;;
65656;SDS011;57397;50.096;14.404;2022-09-09T03:11:03;0.80;;;0.70;;
65656;SDS011;57397;50.096;14.404;2022-09-09T03:13:28;1.15;;;0.70;;
65656;SDS011;57397;50.096;14.404;2022-09-09T03:15:54;1.75;;;0.70;;
65656;SDS011;57397;50.096;14.404;2022-09-09T03:18:19;1.08;;;0.70;;
65656;SDS011;57397;50.096;14.404;2022-09-09T03:20:45;0.75;;;0.60;;
65656;SDS011;57397;50.096;14.404;2022-09-09T03:23:13;0.70;;;0.60;;
65656;SDS011;57397;50.096;14.404;2022-09-09T03:25:39;1.02;;;0.68;;
65656;SDS011;57397;50.096;14.404;2022-09-09T03:28:04;3.38;;;0.77;;
65656;SDS011;57397;50.096;14.404;2022-09-09T03:30:30;1.20;;;0.40;;
65656;SDS011;57397;50.096;14.404;2022-09-09T03:32:55;1.40;;;0.70;;
65656;SDS011;57397;50.096;14.404;2022-09-09T03:35:22;1.38;;;0.50;;
65656;SDS011;57397;50.096;14.404;2022-09-09T03:37:47;0.90;;;0.65;;
65656;SDS011;57397;50.096;14.404;2022-09-09T03:40:13;1.45;;;0.63;;
65656;SDS011;57397;50.096;14.404;2022-09-09T03:42:44;1.02;;;0.68;;
65656;SDS011;57397;50.096;14.404;2022-09-09T03:45:10;0.70;;;0.68;;
65656;SDS011;57397;50.096;14.404;2022-09-09T03:47:36;0.77;;;0.60;;
65656;SDS011;57397;50.096;14.404;2022-09-09T03:50:02;2.33;;;0.70;;
65656;SDS011;57397;50.096;14.404;2022-09-09T03:52:29;0.93;;;0.75;;
65656;SDS011;57397;50.096;14.404;2022-09-09T03:54:56;1.85;;;0.70;;
65656;SDS011;57397;50.096;14.404;2022-09-09T03:57:21;0.63;;;0.50;;
65656;SDS011;57397;50.096;14.404;2022-09-09T03:59:47;1.13;;;0.70;;
65656;SDS011;57397;50.096;14.404;2022-09-09T04:02:12;1.00;;;0.70;;
65656;SDS011;57397;50.096;14.404;2022-09-09T04:04:38;0.70;;;0.65;;
65656;SDS011;57397;50.096;14.404;2022-09-09T04:07:05;0.85;;;0.70;;
65656;SDS011;57397;50.096;14.404;2022-09-09T04:09:31;0.90;;;0.70;;
65656;SDS011;57397;50.096;14.404;2022-09-09T04:11:57;0.90;;;0.80;;
65656;SDS011;57397;50.096;14.404;2022-09-09T04:14:22;1.67;;;0.73;;
65656;SDS011;57397;50.096;14.404;2022-09-09T04:16:48;1.23;;;0.80;;
65656;SDS011;57397;50.096;14.404;2022-09-09T04:19:13;0.95;;;0.68;;
65656;SDS011;57397;50.096;14.404;2022-09-09T04:21:39;0.93;;;0.63;;
65656;SDS011;57397;50.096;14.404;2022-09-09T04:24:06;1.10;;;0.70;;
65656;SDS011;57397;50.096;14.404;2022-09-09T04:26:32;2.15;;;0.70;;
65656;SDS011;57397;50.096;14.404;2022-09-09T04:28:58;0.98;;;0.80;;
65656;SDS011;57397;50.096;14.404;2022-09-09T04:31:23;1.00;;;0.70;;
65656;SDS011;57397;50.096;14.404;2022-09-09T04:33:52;0.77;;;0.60;;
65656;SDS011;57397;50.096;14.404;2022-09-09T04:36:18;0.77;;;0.70;;
65656;SDS011;57397;50.096;14.404;2022-09-09T04:38:46;1.00;;;0.73;;
65656;SDS011;57397;50.096;14.404;2022-09-09T04:41:13;0.60;;;0.60;;
65656;SDS011;57397;50.096;14.404;2022-09-09T04:43:39;1.40;;;0.70;;
65656;SDS011;57397;50.096;14.404;2022-09-09T04:46:05;1.05;;;0.60;;
65656;SDS011;57397;50.096;14.404;2022-09-09T04:48:31;1.10;;;0.85;;
65656;SDS011;57397;50.096;14.404;2022-09-09T04:51:01;1.55;;;0.75;;
65656;SDS011;57397;50.096;14.404;2022-09-09T04:53:28;1.15;;;0.70;;
65656;SDS011;57397;50.096;14.404;2022-09-09T04:56:01;1.60;;;0.70;;
65656;SDS011;57397;50.096;14.404;2022-09-09T04:58:30;0.70;;;0.60;;
65656;SDS011;57397;50.096;14.404;2022-09-09T05:01:02;2.55;;;0.68;;
65656;SDS011;57397;50.096;14.404;2022-09-09T05:03:29;0.80;;;0.70;;
65656;SDS011;57397;50.096;14.404;2022-09-09T05:05:54;2.25;;;0.70;;
65656;SDS011;57397;50.096;14.404;2022-09-09T05:08:21;2.30;;;0.85;;
65656;SDS011;57397;50.096;14.404;2022-09-09T05:10:47;0.90;;;0.70;;
65656;SDS011;57397;50.096;14.404;2022-09-09T05:13:13;0.80;;;0.75;;
65656;SDS011;57397;50.096;14.404;2022-09-09T05:15:38;1.15;;;0.80;;
65656;SDS011;57397;50.096;14.404;2022-09-09T05:18:04;0.73;;;0.70;;
65656;SDS011;57397;50.096;14.404;2022-09-09T05:20:29;1.08;;;0.80;;
65656;SDS011;57397;50.096;14.404;2022-09-09T05:22:55;1.33;;;0.90;;
65656;SDS011;57397;50.096;14.404;2022-09-09T05:25:22;0.90;;;0.80;;
65656;SDS011;57397;50.096;14.404;2022-09-09T05:27:49;0.65;;;0.60;;
65656;SDS011;57397;50.096;14.404;2022-09-09T05:30:15;1.98;;;0.88;;
65656;SDS011;57397;50.096;14.404;2022-09-09T05:32:40;1.55;;;0.80;;
65656;SDS011;57397;50.096;14.404;2022-09-09T05:35:06;1.10;;;0.80;;
65656;SDS011;57397;50.096;14.404;2022-09-09T05:37:32;0.93;;;0.88;;
65656;SDS011;57397;50.096;14.404;2022-09-09T05:39:57;0.77;;;0.65;;
65656;SDS011;57397;50.096;14.404;2022-09-09T05:42:23;0.82;;;0.70;;
65656;SDS011;57397;50.096;14.404;2022-09-09T05:44:49;1.10;;;0.70;;
65656;SDS011;57397;50.096;14.404;2022-09-09T05:47:16;0.70;;;0.60;;
65656;SDS011;57397;50.096;14.404;2022-09-09T05:49:42;1.45;;;0.80;;
65656;SDS011;57397;50.096;14.404;2022-09-09T05:52:07;1.60;;;0.80;;
65656;SDS011;57397;50.096;14.404;2022-09-09T05:54:34;1.05;;;0.80;;
65656;SDS011;57397;50.096;14.404;2022-09-09T05:56:59;1.85;;;1.10;;
65656;SDS011;57397;50.096;14.404;2022-09-09T05:59:25;0.98;;;0.80;;
65656;SDS011;57397;50.096;14.404;2022-09-09T06:01:50;1.98;;;1.00;;
65656;SDS011;57397;50.096;14.404;2022-09-09T06:04:16;1.17;;;0.90;;
65656;SDS011;57397;50.096;14.404;2022-09-09T06:06:41;1.15;;;0.85;;
65656;SDS011;57397;50.096;14.404;2022-09-09T06:09:07;1.33;;;1.00;;
65656;SDS011;57397;50.096;14.404;2022-09-09T06:11:35;1.20;;;1.00;;
65656;SDS011;57397;50.096;14.404;2022-09-09T06:14:02;1.35;;;1.05;;
65656;SDS011;57397;50.096;14.404;2022-09-09T06:16:28;1.02;;;0.90;;
65656;SDS011;57397;50.096;14.404;2022-09-09T06:18:55;1.30;;;1.10;;
65656;SDS011;57397;50.096;14.404;2022-09-09T06:21:23;1.55;;;1.13;;
65656;SDS011;57397;50.096;14.404;2022-09-09T06:23:49;2.10;;;1.00;;
65656;SDS011;57397;50.096;14.404;2022-09-09T06:26:20;1.38;;;0.90;;
65656;SDS011;57397;50.096;14.404;2022-09-09T06:28:54;1.55;;;1.17;;
65656;SDS011;57397;50.096;14.404;2022-09-09T06:31:24;1.30;;;1.05;;
65656;SDS011;57397;50.096;14.404;2022-09-09T06:33:52;1.65;;;1.00;;
65656;SDS011;57397;50.096;14.404;2022-09-09T06:36:19;1.52;;;1.10;;
65656;SDS011;57397;50.096;14.404;2022-09-09T06:38:46;1.60;;;1.08;;
65656;SDS011;57397;50.096;14.404;2022-09-09T06:41:12;1.20;;;1.00;;
65656;SDS011;57397;50.096;14.404;2022-09-09T06:43:39;1.33;;;1.00;;
65656;SDS011;57397;50.096;14.404;2022-09-09T06:46:06;1.10;;;1.00;;
65656;SDS011;57397;50.096;14.404;2022-09-09T06:48:34;1.70;;;1.20;;
65656;SDS011;57397;50.096;14.404;2022-09-09T06:51:19;1.45;;;1.20;;
65656;SDS011;57397;50.096;14.404;2022-09-09T06:53:52;1.40;;;1.20;;
65656;SDS011;57397;50.096;14.404;2022-09-09T06:56:20;1.65;;;1.25;;
65656;SDS011;57397;50.096;14.404;2022-09-09T06:58:50;1.88;;;1.30;;
65656;SDS011;57397;50.096;14.404;2022-09-09T07:01:18;1.45;;;1.15;;
65656;SDS011;57397;50.096;14.404;2022-09-09T07:03:45;1.40;;;1.30;;
65656;SDS011;57397;50.096;14.404;2022-09-09T07:06:17;1.20;;;1.10;;
65656;SDS011;57397;50.096;14.404;2022-09-09T07:08:55;1.58;;;1.20;;
65656;SDS011;57397;50.096;14.404;2022-09-09T07:11:29;1.42;;;1.30;;
65656;SDS011;57397;50.096;14.404;2022-09-09T07:13:59;2.72;;;1.50;;
65656;SDS011;57397;50.096;14.404;2022-09-09T07:16:25;1.63;;;1.20;;
65656;SDS011;57397;50.096;14.404;2022-09-09T07:18:52;1.83;;;1.38;;
65656;SDS011;57397;50.096;14.404;2022-09-09T07:21:21;1.77;;;1.33;;
65656;SDS011;57397;50.096;14.404;2022-09-09T07:23:47;1.88;;;1.27;;
65656;SDS011;57397;50.096;14.404;2022-09-09T07:26:13;1.45;;;1.10;;
65656;SDS011;57397;50.096;14.404;2022-09-09T07:28:40;1.40;;;1.30;;
65656;SDS011;57397;50.096;14.404;2022-09-09T07:31:07;2.15;;;1.40;;
65656;SDS011;57397;50.096;14.404;2022-09-09T07:33:38;2.03;;;1.30;;
65656;SDS011;57397;50.096;14.404;2022-09-09T07:38:37;1.50;;;1.20;;
65656;SDS011;57397;50.096;14.404;2022-09-09T07:41:09;1.42;;;1.20;;
65656;SDS011;57397;50.096;14.404;2022-09-09T07:43:43;1.40;;;1.30;;
65656;SDS011;57397;50.096;14.404;2022-09-09T07:46:10;1.40;;;1.20;;
65656;SDS011;57397;50.096;14.404;2022-09-09T07:48:37;1.30;;;1.20;;
65656;SDS011;57397;50.096;14.404;2022-09-09T07:51:06;1.40;;;1.30;;
65656;SDS011;57397;50.096;14.404;2022-09-09T07:53:35;1.85;;;1.33;;
65656;SDS011;57397;50.096;14.404;2022-09-09T07:56:08;1.42;;;1.33;;
65656;SDS011;57397;50.096;14.404;2022-09-09T07:58:36;2.03;;;1.30;;
65656;SDS011;57397;50.096;14.404;2022-09-09T08:01:09;1.90;;;1.30;;
65656;SDS011;57397;50.096;14.404;2022-09-09T08:03:36;1.70;;;1.20;;
65656;SDS011;57397;50.096;14.404;2022-09-09T08:06:06;1.58;;;1.23;;
65656;SDS011;57397;50.096;14.404;2022-09-09T08:08:33;1.40;;;1.10;;
65656;SDS011;57397;50.096;14.404;2022-09-09T08:11:04;1.50;;;1.08;;
65656;SDS011;57397;50.096;14.404;2022-09-09T08:13:37;1.45;;;1.20;;
65656;SDS011;57397;50.096;14.404;2022-09-09T08:16:04;3.25;;;1.40;;
65656;SDS011;57397;50.096;14.404;2022-09-09T08:18:34;1.40;;;1.30;;
65656;SDS011;57397;50.096;14.404;2022-09-09T08:21:20;1.73;;;1.30;;
65656;SDS011;57397;50.096;14.404;2022-09-09T08:23:49;1.23;;;1.10;;
65656;SDS011;57397;50.096;14.404;2022-09-09T08:26:21;1.48;;;1.10;;
65656;SDS011;57397;50.096;14.404;2022-09-09T08:28:52;1.20;;;1.10;;
65656;SDS011;57397;50.096;14.404;2022-09-09T08:31:21;1.40;;;1.27;;
65656;SDS011;57397;50.096;14.404;2022-09-09T08:33:54;1.30;;;1.20;;
65656;SDS011;57397;50.096;14.404;2022-09-09T08:36:22;1.60;;;1.20;;
65656;SDS011;57397;50.096;14.404;2022-09-09T08:38:49;1.10;;;1.00;;
65656;SDS011;57397;50.096;14.404;2022-09-09T08:43:47;1.85;;;1.30;;
65656;SDS011;57397;50.096;14.404;2022-09-09T08:47:01;1.13;;;0.98;;
65656;SDS011;57397;50.096;14.404;2022-09-09T08:49:22;1.23;;;1.13;;
65656;SDS011;57397;50.096;14.404;2022-09-09T08:52:11;1.20;;;1.00;;
65656;SDS011;57397;50.096;14.404;2022-09-09T08:54:58;1.30;;;1.10;;
65656;SDS011;57397;50.096;14.404;2022-09-09T08:57:30;1.20;;;1.10;;
65656;SDS011;57397;50.096;14.404;2022-09-09T08:59:57;1.30;;;1.05;;
65656;SDS011;57397;50.096;14.404;2022-09-09T09:07:55;1.30;;;1.20;;
65656;SDS011;57397;50.096;14.404;2022-09-09T09:13:17;1.42;;;1.20;;
65656;SDS011;57397;50.096;14.404;2022-09-09T09:15:46;1.30;;;1.20;;
65656;SDS011;57397;50.096;14.404;2022-09-09T09:18:40;1.30;;;1.20;;
65656;SDS011;57397;50.096;14.404;2022-09-09T09:21:10;1.48;;;1.10;;
65656;SDS011;57397;50.096;14.404;2022-09-09T09:23:54;1.23;;;1.10;;
65656;SDS011;57397;50.096;14.404;2022-09-09T09:26:23;1.20;;;1.10;;
65656;SDS011;57397;50.096;14.404;2022-09-09T09:28:53;1.20;;;1.00;;
65656;SDS011;57397;50.096;14.404;2022-09-09T09:31:21;1.52;;;1.13;;
65656;SDS011;57397;50.096;14.404;2022-09-09T09:33:52;1.23;;;1.05;;
65656;SDS011;57397;50.096;14.404;2022-09-09T09:36:19;1.17;;;1.00;;
65656;SDS011;57397;50.096;14.404;2022-09-09T09:39:21;1.25;;;1.02;;
65656;SDS011;57397;50.096;14.404;2022-09-09T09:41:47;1.20;;;1.10;;
65656;SDS011;57397;50.096;14.404;2022-09-09T09:44:23;1.45;;;1.30;;
65656;SDS011;57397;50.096;14.404;2022-09-09T09:46:53;1.30;;;1.15;;
65656;SDS011;57397;50.096;14.404;2022-09-09T09:49:35;1.23;;;1.10;;
65656;SDS011;57397;50.096;14.404;2022-09-09T09:52:02;1.02;;;0.93;;
65656;SDS011;57397;50.096;14.404;2022-09-09T09:54:29;1.63;;;1.10;;
65656;SDS011;57397;50.096;14.404;2022-09-09T09:57:07;1.40;;;1.10;;
65656;SDS011;57397;50.096;14.404;2022-09-09T09:59:35;1.38;;;1.10;;
65656;SDS011;57397;50.096;14.404;2022-09-09T10:04:42;1.00;;;0.90;;
65656;SDS011;57397;50.096;14.404;2022-09-09T10:07:11;1.15;;;1.05;;
65656;SDS011;57397;50.096;14.404;2022-09-09T10:09:53;1.23;;;1.00;;
65656;SDS011;57397;50.096;14.404;2022-09-09T10:17:39;1.42;;;1.10;;
65656;SDS011;57397;50.096;14.404;2022-09-09T10:39:56;1.40;;;0.95;;
65656;SDS011;57397;50.096;14.404;2022-09-09T10:42:42;1.10;;;1.00;;
65656;SDS011;57397;50.096;14.404;2022-09-09T10:45:18;1.30;;;1.00;;
65656;SDS011;57397;50.096;14.404;2022-09-09T10:56:07;1.00;;;0.90;;
65656;SDS011;57397;50.096;14.404;2022-09-09T11:01:24;1.48;;;0.90;;
65656;SDS011;57397;50.096;14.404;2022-09-09T11:04:03;1.20;;;0.90;;
65656;SDS011;57397;50.096;14.404;2022-09-09T11:06:37;1.30;;;1.00;;
65656;SDS011;57397;50.096;14.404;2022-09-09T11:09:08;1.00;;;0.90;;
65656;SDS011;57397;50.096;14.404;2022-09-09T11:11:41;1.25;;;1.02;;
65656;SDS011;57397;50.096;14.404;2022-09-09T11:17:09;1.00;;;0.90;;
65656;SDS011;57397;50.096;14.404;2022-09-09T11:40:43;1.02;;;0.80;;
65656;SDS011;57397;50.096;14.404;2022-09-09T11:45:39;1.00;;;0.90;;
65656;SDS011;57397;50.096;14.404;2022-09-09T11:48:21;1.17;;;1.00;;
65656;SDS011;57397;50.096;14.404;2022-09-09T11:50:59;1.13;;;0.90;;
65656;SDS011;57397;50.096;14.404;2022-09-09T11:53:28;1.65;;;0.90;;
65656;SDS011;57397;50.096;14.404;2022-09-09T11:56:04;1.25;;;0.90;;
65656;SDS011;57397;50.096;14.404;2022-09-09T11:58:41;0.90;;;0.80;;
65656;SDS011;57397;50.096;14.404;2022-09-09T12:01:15;1.33;;;0.90;;
65656;SDS011;57397;50.096;14.404;2022-09-09T12:03:51;1.15;;;0.90;;
65656;SDS011;57397;50.096;14.404;2022-09-09T12:06:32;1.10;;;0.90;;
65656;SDS011;57397;50.096;14.404;2022-09-09T12:09:18;1.38;;;0.80;;
65656;SDS011;57397;50.096;14.404;2022-09-09T12:11:44;1.30;;;1.00;;
65656;SDS011;57397;50.096;14.404;2022-09-09T12:14:23;1.05;;;0.85;;
65656;SDS011;57397;50.096;14.404;2022-09-09T12:17:17;1.20;;;0.90;;
65656;SDS011;57397;50.096;14.404;2022-09-09T12:19:44;0.98;;;0.88;;
65656;SDS011;57397;50.096;14.404;2022-09-09T12:27:35;2.10;;;0.77;;
65656;SDS011;57397;50.096;14.404;2022-09-09T12:30:10;1.35;;;1.00;;
65656;SDS011;57397;50.096;14.404;2022-09-09T12:32:37;1.20;;;0.93;;
65656;SDS011;57397;50.096;14.404;2022-09-09T12:35:08;1.48;;;0.82;;
65656;SDS011;57397;50.096;14.404;2022-09-09T12:37:54;1.08;;;0.93;;
65656;SDS011;57397;50.096;14.404;2022-09-09T12:40:25;1.45;;;0.93;;
65656;SDS011;57397;50.096;14.404;2022-09-09T12:42:52;1.20;;;0.90;;
65656;SDS011;57397;50.096;14.404;2022-09-09T12:45:24;1.08;;;0.82;;
65656;SDS011;57397;50.096;14.404;2022-09-09T12:50:19;0.85;;;0.80;;
65656;SDS011;57397;50.096;14.404;2022-09-09T12:52:47;1.00;;;0.80;;
65656;SDS011;57397;50.096;14.404;2022-09-09T12:55:16;1.10;;;0.90;;
65656;SDS011;57397;50.096;14.404;2022-09-09T12:57:44;1.00;;;0.77;;
65656;SDS011;57397;50.096;14.404;2022-09-09T13:00:15;1.30;;;1.00;;
65656;SDS011;57397;50.096;14.404;2022-09-09T13:02:58;0.80;;;0.75;;
65656;SDS011;57397;50.096;14.404;2022-09-09T13:05:36;1.30;;;0.80;;
65656;SDS011;57397;50.096;14.404;2022-09-09T13:08:08;1.42;;;0.90;;
65656;SDS011;57397;50.096;14.404;2022-09-09T13:10:36;1.60;;;0.82;;
65656;SDS011;57397;50.096;14.404;2022-09-09T13:13:04;1.20;;;0.90;;
65656;SDS011;57397;50.096;14.404;2022-09-09T13:15:38;1.38;;;0.88;;
65656;SDS011;57397;50.096;14.404;2022-09-09T13:18:04;1.10;;;0.90;;
65656;SDS011;57397;50.096;14.404;2022-09-09T13:20:33;1.02;;;0.80;;
65656;SDS011;57397;50.096;14.404;2022-09-09T13:22:58;0.90;;;0.80;;
65656;SDS011;57397;50.096;14.404;2022-09-09T13:25:28;0.90;;;0.80;;
65656;SDS011;57397;50.096;14.404;2022-09-09T13:28:00;1.23;;;0.75;;
65656;SDS011;57397;50.096;14.404;2022-09-09T13:33:00;0.98;;;0.77;;
65656;SDS011;57397;50.096;14.404;2022-09-09T13:35:26;1.60;;;0.80;;
65656;SDS011;57397;50.096;14.404;2022-09-09T13:37:52;1.20;;;0.90;;
65656;SDS011;57397;50.096;14.404;2022-09-09T13:40:19;1.40;;;0.80;;
65656;SDS011;57397;50.096;14.404;2022-09-09T13:42:46;1.42;;;0.70;;
65656;SDS011;57397;50.096;14.404;2022-09-09T13:45:19;1.27;;;0.80;;
65656;SDS011;57397;50.096;14.404;2022-09-09T13:47:46;1.00;;;0.90;;
65656;SDS011;57397;50.096;14.404;2022-09-09T13:52:49;1.65;;;0.82;;
65656;SDS011;57397;50.096;14.404;2022-09-09T13:55:16;1.27;;;0.90;;
65656;SDS011;57397;50.096;14.404;2022-09-09T13:58:01;1.20;;;0.90;;
65656;SDS011;57397;50.096;14.404;2022-09-09T14:00:32;1.30;;;0.80;;
65656;SDS011;57397;50.096;14.404;2022-09-09T14:02:59;1.00;;;0.80;;
65656;SDS011;57397;50.096;14.404;2022-09-09T14:05:28;0.98;;;0.80;;
65656;SDS011;57397;50.096;14.404;2022-09-09T14:07:56;1.27;;;0.80;;
65656;SDS011;57397;50.096;14.404;2022-09-09T14:10:23;0.80;;;0.70;;
65656;SDS011;57397;50.096;14.404;2022-09-09T14:12:48;0.95;;;0.85;;
65656;SDS011;57397;50.096;14.404;2022-09-09T14:15:14;1.25;;;0.90;;
65656;SDS011;57397;50.096;14.404;2022-09-09T14:17:39;1.42;;;0.80;;
65656;SDS011;57397;50.096;14.404;2022-09-09T14:20:05;1.10;;;0.90;;
65656;SDS011;57397;50.096;14.404;2022-09-09T14:22:34;1013.78;;;487.08;;
65656;SDS011;57397;50.096;14.404;2022-09-09T14:25:00;1521.47;;;749.88;;
65656;SDS011;57397;50.096;14.404;2022-09-09T14:27:26;1936.85;;;742.45;;
65656;SDS011;57397;50.096;14.404;2022-09-09T14:29:54;1999.90;;;999.90;;
65656;SDS011;57397;50.096;14.404;2022-09-09T14:32:20;1999.90;;;999.90;;
65656;SDS011;57397;50.096;14.404;2022-09-09T14:34:46;1999.90;;;982.30;;
65656;SDS011;57397;50.096;14.404;2022-09-09T14:37:14;1999.90;;;815.17;;
65656;SDS011;57397;50.096;14.404;2022-09-09T14:39:40;1838.88;;;667.30;;
65656;SDS011;57397;50.096;14.404;2022-09-09T14:42:05;1333.15;;;512.97;;
65656;SDS011;57397;50.096;14.404;2022-09-09T14:44:31;1371.68;;;524.67;;
65656;SDS011;57397;50.096;14.404;2022-09-09T14:46:57;1364.60;;;525.65;;
65656;SDS011;57397;50.096;14.404;2022-09-09T14:49:23;1720.72;;;642.80;;
65656;SDS011;57397;50.096;14.404;2022-09-09T14:51:49;1774.30;;;667.80;;
65656;SDS011;57397;50.096;14.404;2022-09-09T14:54:14;1800.57;;;663.65;;
65656;SDS011;57397;50.096;14.404;2022-09-09T14:56:40;1999.90;;;711.40;;
65656;SDS011;57397;50.096;14.404;2022-09-09T14:59:05;1999.90;;;797.67;;
65656;SDS011;57397;50.096;14.404;2022-09-09T15:01:31;1999.90;;;827.50;;
65656;SDS011;57397;50.096;14.404;2022-09-09T15:04:01;1999.90;;;874.70;;
65656;SDS011;57397;50.096;14.404;2022-09-09T15:06:31;1999.90;;;850.33;;
65656;SDS011;57397;50.096;14.404;2022-09-09T15:08:58;1999.90;;;879.28;;
65656;SDS011;57397;50.096;14.404;2022-09-09T15:11:26;1999.90;;;852.90;;
65656;SDS011;57397;50.096;14.404;2022-09-09T15:13:53;1999.90;;;856.50;;
65656;SDS011;57397;50.096;14.404;2022-09-09T15:16:19;1999.90;;;856.85;;
65656;SDS011;57397;50.096;14.404;2022-09-09T15:18:46;1999.90;;;847.00;;
65656;SDS011;57397;50.096;14.404;2022-09-09T15:21:13;1999.90;;;843.10;;
65656;SDS011;57397;50.096;14.404;2022-09-09T15:23:42;1999.90;;;873.88;;
65656;SDS011;57397;50.096;14.404;2022-09-09T15:26:08;1999.90;;;886.97;;
65656;SDS011;57397;50.096;14.404;2022-09-09T15:28:35;1999.90;;;873.28;;
65656;SDS011;57397;50.096;14.404;2022-09-09T15:31:09;1999.90;;;867.67;;
65656;SDS011;57397;50.096;14.404;2022-09-09T15:33:36;1999.90;;;853.38;;
65656;SDS011;57397;50.096;14.404;2022-09-09T15:36:15;1999.90;;;865.58;;
65656;SDS011;57397;50.096;14.404;2022-09-09T15:38:42;1999.90;;;830.30;;
65656;SDS011;57397;50.096;14.404;2022-09-09T15:41:09;1999.90;;;812.55;;
65656;SDS011;57397;50.096;14.404;2022-09-09T15:43:35;1999.90;;;808.75;;
65656;SDS011;57397;50.096;14.404;2022-09-09T15:46:02;1999.90;;;786.35;;
65656;SDS011;57397;50.096;14.404;2022-09-09T15:48:44;1999.90;;;749.33;;
65656;SDS011;57397;50.096;14.404;2022-09-09T15:51:10;1999.90;;;745.05;;
65656;SDS011;57397;50.096;14.404;2022-09-09T15:53:36;1999.90;;;748.40;;
65656;SDS011;57397;50.096;14.404;2022-09-09T15:56:04;1999.90;;;742.70;;
65656;SDS011;57397;50.096;14.404;2022-09-09T15:58:32;1998.80;;;704.50;;
65656;SDS011;57397;50.096;14.404;2022-09-09T16:01:04;1999.90;;;718.70;;
65656;SDS011;57397;50.096;14.404;2022-09-09T16:03:35;1999.90;;;729.47;;
65656;SDS011;57397;50.096;14.404;2022-09-09T16:06:02;1948.32;;;690.25;;
65656;SDS011;57397;50.096;14.404;2022-09-09T16:08:36;1967.03;;;703.05;;
65656;SDS011;57397;50.096;14.404;2022-09-09T16:11:06;1835.60;;;668.25;;
65656;SDS011;57397;50.096;14.404;2022-09-09T16:13:35;1751.22;;;644.35;;
65656;SDS011;57397;50.096;14.404;2022-09-09T16:16:02;1704.57;;;634.00;;
65656;SDS011;57397;50.096;14.404;2022-09-09T16:21:08;1614.15;;;601.78;;
65656;SDS011;57397;50.096;14.404;2022-09-09T16:23:46;1521.50;;;569.72;;
65656;SDS011;57397;50.096;14.404;2022-09-09T16:26:12;1460.72;;;548.17;;
65656;SDS011;57397;50.096;14.404;2022-09-09T16:28:40;1400.95;;;526.95;;
65656;SDS011;57397;50.096;14.404;2022-09-09T16:31:07;1416.75;;;533.75;;
65656;SDS011;57397;50.096;14.404;2022-09-09T16:33:35;1295.50;;;481.85;;
65656;SDS011;57397;50.096;14.404;2022-09-09T16:36:08;1215.25;;;440.95;;
65656;SDS011;57397;50.096;14.404;2022-09-09T16:38:35;1141.38;;;414.38;;
65656;SDS011;57397;50.096;14.404;2022-09-09T16:41:01;1117.63;;;395.05;;
65656;SDS011;57397;50.096;14.404;2022-09-09T16:43:28;1116.13;;;391.23;;
65656;SDS011;57397;50.096;14.404;2022-09-09T16:45:53;1089.93;;;397.17;;
65656;SDS011;57397;50.096;14.404;2022-09-09T16:48:19;1028.20;;;361.30;;
65656;SDS011;57397;50.096;14.404;2022-09-09T16:50:45;1031.43;;;372.67;;
65656;SDS011;57397;50.096;14.404;2022-09-09T16:56:15;874.60;;;313.80;;
65656;SDS011;57397;50.096;14.404;2022-09-09T16:58:42;843.53;;;299.92;;
65656;SDS011;57397;50.096;14.404;2022-09-09T17:01:08;1009.97;;;355.42;;
65656;SDS011;57397;50.096;14.404;2022-09-09T17:03:35;931.97;;;326.30;;
65656;SDS011;57397;50.096;14.404;2022-09-09T17:06:02;926.95;;;328.33;;
65656;SDS011;57397;50.096;14.404;2022-09-09T17:08:29;845.42;;;297.33;;
65656;SDS011;57397;50.096;14.404;2022-09-09T17:10:56;856.20;;;306.70;;
65656;SDS011;57397;50.096;14.404;2022-09-09T17:13:23;798.53;;;280.20;;